Time;durP1;ratioP1;P1;durP2;ratioP2;P2;SDS_P1;SDS_P2;PMS_P1;PMS_P2;Temp;Humidity;BMP_temperature;BMP_pressure;BME280_temperature;BME280_humidity;BME280_pressure;Samples;Min_cycle;Max_cycle;Signal;HPM_P1;HPM_P2
2023/07/19 00:01:10;;;;;;;;;;;;;;;30.50;42.26;94164.25;5032499;28;7214;-62
2023/07/19 00:03:41;;;;;;;;;;;;;;;30.51;41.99;94165.72;5026191;28;7184;-62
2023/07/19 00:06:13;;;;;;;;;;;;;;;30.49;42.51;94167.59;5033914;28;7242;-62
2023/07/19 00:08:39;;;;;;;;;;;;;;;30.48;41.65;94166.84;5041668;28;7208;-62
2023/07/19 00:11:13;;;;;;;;;;;;;;;30.47;42.04;94159.81;5031365;28;6994;-62
2023/07/19 00:13:45;;;;;;;;;;;;;;;30.52;42.52;94158.91;5033215;28;8787;-62
2023/07/19 00:16:13;;;;;;;;;;;;;;;30.52;42.66;94164.44;5030917;28;6987;-62
2023/07/19 00:18:45;;;;;;;;;;;;;;;30.55;42.04;94159.84;5031153;28;8945;-62
2023/07/19 00:21:15;;;;;;;;;;;;;;;30.53;41.56;94156.88;5019727;28;6989;-62
2023/07/19 00:23:43;;;;;;;;;;;;;;;30.54;42.51;94159.09;5049149;28;7011;-62
2023/07/19 00:26:11;;;;;;;;;;;;;;;30.55;42.14;94157.06;5031769;28;6951;-62
2023/07/19 00:28:45;;;;;;;;;;;;;;;30.53;42.31;94163.19;5058601;28;9211;-62
2023/07/19 00:31:31;;;;;;;;;;;;;;;30.52;42.61;94166.47;5031623;28;7191;-62
2023/07/19 00:34:13;;;;;;;;;;;;;;;30.48;42.63;94166.84;5022761;28;8839;-62
2023/07/19 00:36:46;;;;;;;;;;;;;;;30.50;41.80;94164.25;5045136;28;7405;-63
2023/07/19 00:39:14;;;;;;;;;;;;;;;30.50;41.87;94175.38;5031677;28;7355;-62
2023/07/19 00:41:43;;;;;;;;;;;;;;;30.47;41.64;94165.34;5029417;28;7237;-62
2023/07/19 00:44:09;;;;;;;;;;;;;;;30.50;42.69;94175.38;5032981;28;9342;-61
2023/07/19 00:46:46;;;;;;;;;;;;;;;30.48;42.31;94172.41;5031994;28;6981;-61
2023/07/19 00:49:22;;;;;;;;;;;;;;;30.48;42.38;94175.19;5030897;28;7121;-62
2023/07/19 00:52:04;;;;;;;;;;;;;;;30.47;42.53;94175.72;5030744;28;7038;-62
2023/07/19 00:54:37;;;;;;;;;;;;;;;30.48;41.92;94177.94;5060593;28;7320;-62
2023/07/19 00:57:32;;;;;;;;;;;;;;;30.51;42.27;94173.34;5061822;28;7231;-63
2023/07/19 01:00:06;;;;;;;;;;;;;;;30.48;41.67;94168.88;5031922;28;7005;-62
2023/07/19 01:02:46;;;;;;;;;;;;;;;30.51;42.74;94170.56;5029421;28;7267;-62
2023/07/19 01:05:12;;;;;;;;;;;;;;;30.52;42.74;94172.78;5029630;28;7200;-61
2023/07/19 01:07:39;;;;;;;;;;;;;;;30.46;42.99;94169.44;5031167;28;7015;-62
2023/07/19 01:10:09;;;;;;;;;;;;;;;30.46;42.54;94172.22;5025138;28;7413;-62
2023/07/19 01:12:35;;;;;;;;;;;;;;;30.44;41.76;94171.25;5047649;28;7405;-62
2023/07/19 01:15:19;;;;;;;;;;;;;;;30.44;42.26;94165.72;5047699;28;9195;-62
2023/07/19 01:17:45;;;;;;;;;;;;;;;30.42;42.50;94163.50;5022099;28;9066;-62
2023/07/19 01:20:17;;;;;;;;;;;;;;;30.43;42.85;94167.00;5027889;28;9158;-62
2023/07/19 01:22:59;;;;;;;;;;;;;;;30.41;42.45;94167.56;5047820;28;9454;-62
2023/07/19 01:25:28;;;;;;;;;;;;;;;30.41;43.12;94166.81;5045010;28;7250;-60
2023/07/19 01:27:55;;;;;;;;;;;;;;;30.40;42.08;94171.63;5041018;28;7287;-60
2023/07/19 01:30:33;;;;;;;;;;;;;;;30.41;41.84;94159.22;5028025;28;7261;-60
2023/07/19 01:33:04;;;;;;;;;;;;;;;30.41;42.27;94159.22;5031446;28;9085;-60
2023/07/19 01:35:56;;;;;;;;;;;;;;;30.40;42.98;94159.78;5029859;28;7615;-59
2023/07/19 01:38:34;;;;;;;;;;;;;;;30.39;43.21;94153.47;4986069;28;8908;-60
2023/07/19 01:41:03;;;;;;;;;;;;;;;30.39;42.85;94152.72;5002904;28;7615;-60
2023/07/19 01:43:29;;;;;;;;;;;;;;;30.36;42.96;94154.56;4992022;28;9025;-60
2023/07/19 01:45:57;;;;;;;;;;;;;;;30.36;42.32;94154.56;4990185;28;7276;-60
2023/07/19 01:48:26;;;;;;;;;;;;;;;30.38;42.20;94156.81;4993193;28;7418;-60
2023/07/19 01:50:52;;;;;;;;;;;;;;;30.36;42.39;94151.06;5024106;28;6913;-60
2023/07/19 01:53:18;;;;;;;;;;;;;;;30.36;43.18;94157.34;4997624;28;7312;-60
2023/07/19 01:55:44;;;;;;;;;;;;;;;30.34;43.20;94154.38;4994690;28;9434;-60
2023/07/19 01:58:10;;;;;;;;;;;;;;;30.37;42.29;94156.06;4996743;28;8757;-60
2023/07/19 02:00:37;;;;;;;;;;;;;;;30.37;42.31;94161.63;4993532;28;6977;-60
2023/07/19 02:03:51;;;;;;;;;;;;;;;30.36;42.54;94160.13;5009233;28;7291;-60
2023/07/19 02:06:18;;;;;;;;;;;;;;;30.34;42.35;94151.59;4935397;29;7157;-59
2023/07/19 02:09:09;;;;;;;;;;;;;;;30.37;43.11;94156.06;4951456;29;7268;-60
2023/07/19 02:11:35;;;;;;;;;;;;;;;30.36;42.41;94157.34;4945708;29;9403;-60
2023/07/19 02:14:10;;;;;;;;;;;;;;;30.36;43.22;94165.66;4950316;28;9048;-60
2023/07/19 02:16:40;;;;;;;;;;;;;;;30.37;43.03;94166.41;4990802;28;7567;-60
2023/07/19 02:19:09;;;;;;;;;;;;;;;30.36;43.11;94168.44;4977535;28;7349;-60
2023/07/19 02:21:54;;;;;;;;;;;;;;;30.34;42.31;94173.81;4996222;28;8256;-60
2023/07/19 02:24:34;;;;;;;;;;;;;;;30.34;42.18;94168.25;4976962;28;7273;-60
2023/07/19 02:27:00;;;;;;;;;;;;;;;30.34;43.25;94168.25;4977865;28;9053;-60
2023/07/19 02:29:40;;;;;;;;;;;;;;;30.35;42.44;94171.78;4976128;28;7179;-60
2023/07/19 02:32:15;;;;;;;;;;;;;;;30.33;42.38;94168.81;4999409;28;7176;-60
2023/07/19 02:34:50;;;;;;;;;;;;;;;30.33;42.31;94169.56;5003186;28;8755;-61
2023/07/19 02:37:35;;;;;;;;;;;;;;;30.35;43.28;94169.00;4961862;28;7438;-61
2023/07/19 02:40:22;;;;;;;;;;;;;;;30.35;42.90;94174.56;4993513;28;8444;-61
2023/07/19 02:42:50;;;;;;;;;;;;;;;30.36;42.56;94174.00;5009773;28;7252;-61
2023/07/19 02:45:47;;;;;;;;;;;;;;;30.33;43.27;94177.88;5027446;28;7315;-61
2023/07/19 02:48:14;;;;;;;;;;;;;;;30.33;42.61;94175.09;4993055;28;7012;-61
2023/07/19 02:51:10;;;;;;;;;;;;;;;30.34;42.47;94179.34;4974402;28;7209;-61
2023/07/19 02:53:39;;;;;;;;;;;;;;;30.35;42.68;94183.63;4991075;28;7463;-61
2023/07/19 02:56:23;;;;;;;;;;;;;;;30.36;42.71;94187.88;4992843;28;7327;-61
2023/07/19 02:58:50;;;;;;;;;;;;;;;30.35;42.67;94180.09;4992326;28;7004;-61
2023/07/19 03:01:36;;;;;;;;;;;;;;;30.37;42.17;94183.81;4990235;28;8831;-61
2023/07/19 03:04:02;;;;;;;;;;;;;;;30.34;43.02;94175.84;4979375;28;7488;-61
2023/07/19 03:06:42;;;;;;;;;;;;;;;30.34;43.37;94195.28;5008779;28;7487;-61
2023/07/19 03:09:12;;;;;;;;;;;;;;;30.32;42.88;94175.66;4991858;28;7317;-61
2023/07/19 03:11:40;;;;;;;;;;;;;;;30.30;42.63;94176.16;4975339;28;7211;-61
2023/07/19 03:14:06;;;;;;;;;;;;;;;30.30;42.90;94184.50;4974169;28;9203;-61
2023/07/19 03:16:42;;;;;;;;;;;;;;;30.33;43.35;94194.53;4972835;28;7239;-61
2023/07/19 03:19:54;;;;;;;;;;;;;;;30.31;43.52;94188.78;4981672;28;7205;-61
2023/07/19 03:22:31;;;;;;;;;;;;;;;30.29;42.85;94188.56;4933178;28;6993;-61
2023/07/19 03:25:30;;;;;;;;;;;;;;;30.32;42.51;94195.09;4958589;28;9400;-61
2023/07/19 03:28:02;;;;;;;;;;;;;;;30.34;43.01;94193.22;4975640;28;7141;-61
2023/07/19 03:30:30;;;;;;;;;;;;;;;30.34;42.91;94187.69;4963369;28;7172;-61
2023/07/19 03:33:17;;;;;;;;;;;;;;;30.32;42.75;94179.16;4972639;28;8798;-61
2023/07/19 03:36:31;;;;;;;;;;;;;;;30.31;42.49;94188.78;4978900;28;9159;-61
2023/07/19 03:39:03;;;;;;;;;;;;;;;30.30;42.97;94186.50;4919511;29;9055;-61
2023/07/19 03:41:38;;;;;;;;;;;;;;;30.30;43.09;94181.72;4946291;28;7189;-61
2023/07/19 03:44:17;;;;;;;;;;;;;;;30.31;43.54;94191.56;4916990;29;7213;-58
2023/07/19 03:47:00;;;;;;;;;;;;;;;30.34;42.98;94184.91;4938962;28;9097;-58
2023/07/19 03:49:45;;;;;;;;;;;;;;;30.36;42.88;94187.88;4937205;28;9689;-59
2023/07/19 03:52:11;;;;;;;;;;;;;;;30.30;42.30;94184.50;4924064;28;8886;-59
2023/07/19 03:54:38;;;;;;;;;;;;;;;30.30;42.45;94198.34;4921567;28;7870;-59
2023/07/19 03:57:08;;;;;;;;;;;;;;;30.31;43.19;94201.91;4944934;28;7299;-59
2023/07/19 03:59:54;;;;;;;;;;;;;;;30.31;43.42;94208.22;4932671;28;7025;-59
2023/07/19 04:02:30;;;;;;;;;;;;;;;30.34;43.32;94211.94;4937558;28;6982;-59
2023/07/19 04:05:05;;;;;;;;;;;;;;;30.31;42.73;94213.75;4962678;28;7118;-59
2023/07/19 04:07:31;;;;;;;;;;;;;;;30.31;42.78;94208.22;4964598;28;7070;-58
2023/07/19 04:10:37;;;;;;;;;;;;;;;30.32;42.34;94212.47;4971996;28;7212;-59
2023/07/19 04:13:13;;;;;;;;;;;;;;;30.32;42.52;94208.97;4967391;28;6988;-58
2023/07/19 04:16:01;;;;;;;;;;;;;;;30.31;42.60;94215.78;5010319;28;7159;-59
2023/07/19 04:18:39;;;;;;;;;;;;;;;30.33;42.92;94213.22;5026866;28;7263;-58
2023/07/19 04:21:06;;;;;;;;;;;;;;;30.31;43.10;94218.56;5032227;28;9088;-59
2023/07/19 04:23:50;;;;;;;;;;;;;;;30.32;43.32;94218.00;5027286;28;7560;-59
2023/07/19 04:26:28;;;;;;;;;;;;;;;30.29;43.33;94216.31;5033954;28;9821;-59
2023/07/19 04:29:27;;;;;;;;;;;;;;;30.31;43.31;94230.41;5036272;28;9273;-57
2023/07/19 04:32:09;;;;;;;;;;;;;;;30.32;43.25;94220.06;4963664;28;7195;-59
2023/07/19 04:35:07;;;;;;;;;;;;;;;30.33;43.01;94230.59;4954663;28;7256;-59
2023/07/19 04:37:44;;;;;;;;;;;;;;;30.28;42.57;94219.63;4965633;28;7316;-58
2023/07/19 04:40:47;;;;;;;;;;;;;;;30.30;43.30;94222.59;4952480;28;9001;-58
2023/07/19 04:43:17;;;;;;;;;;;;;;;30.29;42.81;94224.63;4904152;29;7071;-58
2023/07/19 04:45:55;;;;;;;;;;;;;;;30.30;43.37;94228.88;4925553;29;9268;-58
2023/07/19 04:48:21;;;;;;;;;;;;;;;30.30;42.25;94225.34;4890913;29;8931;-58
2023/07/19 04:51:23;;;;;;;;;;;;;;;30.29;42.79;94230.19;4908502;29;7310;-59
2023/07/19 04:53:51;;;;;;;;;;;;;;;30.27;42.34;94215.38;4914028;29;7095;-58
2023/07/19 04:56:17;;;;;;;;;;;;;;;30.29;43.35;94227.41;4916188;29;7010;-62
2023/07/19 04:58:43;;;;;;;;;;;;;;;30.31;42.94;94224.84;4915728;29;8755;-62
2023/07/19 05:01:38;;;;;;;;;;;;;;;30.30;42.90;94226.09;4915359;29;9361;-62
2023/07/19 05:04:15;;;;;;;;;;;;;;;30.30;42.67;94215.00;4877592;29;7205;-62
2023/07/19 05:07:14;;;;;;;;;;;;;;;30.28;43.51;94217.59;4881444;29;7490;-62
2023/07/19 05:09:51;;;;;;;;;;;;;;;30.32;43.37;94225.59;4928358;29;9861;-63
2023/07/19 05:12:18;;;;;;;;;;;;;;;30.30;43.01;94220.56;4909482;29;9179;-62
2023/07/19 05:14:44;;;;;;;;;;;;;;;30.26;43.57;94217.41;4914895;29;7259;-62
2023/07/19 05:21:00;;;;;;;;;;;;;;;30.28;43.20;94225.91;4913647;29;8231;-62
2023/07/19 05:23:36;;;;;;;;;;;;;;;30.29;43.49;94232.97;4920706;29;7210;-62
2023/07/19 05:26:09;;;;;;;;;;;;;;;30.31;43.03;94235.97;4909930;29;7243;-61
2023/07/19 05:28:35;;;;;;;;;;;;;;;30.33;42.72;94246.50;4914213;29;8452;-62
2023/07/19 05:31:13;;;;;;;;;;;;;;;30.32;43.11;94242.97;4925516;29;9172;-61
2023/07/19 05:33:41;;;;;;;;;;;;;;;30.32;43.28;94245.75;4906091;29;6970;-61
2023/07/19 05:36:37;;;;;;;;;;;;;;;30.33;42.45;94249.28;4905876;29;7403;-61
2023/07/19 05:39:29;;;;;;;;;;;;;;;30.34;42.70;94234.13;4843528;29;6998;-61
2023/07/19 05:42:36;;;;;;;;;;;;;;;30.33;43.52;94232.63;4858932;29;6907;-61
2023/07/19 05:45:13;;;;;;;;;;;;;;;30.36;43.27;94242.66;4854074;29;7333;-62
2023/07/19 05:47:39;;;;;;;;;;;;;;;30.33;43.10;94249.28;4877275;29;9527;-62
2023/07/19 05:50:53;;;;;;;;;;;;;;;30.33;43.15;94252.81;4878228;29;9067;-61
2023/07/19 05:53:19;;;;;;;;;;;;;;;30.32;42.87;94248.53;4840214;29;6987;-61
2023/07/19 05:55:57;;;;;;;;;;;;;;;30.31;42.79;94249.09;4841422;29;7239;-61
2023/07/19 05:58:24;;;;;;;;;;;;;;;30.31;43.07;94249.84;4867332;29;9145;-61
2023/07/19 06:00:51;;;;;;;;;;;;;;;30.29;43.04;94255.16;4843763;29;7106;-61
2023/07/19 06:03:16;;;;;;;;;;;;;;;30.30;43.34;94261.44;4862276;29;6984;-61
2023/07/19 06:05:56;;;;;;;;;;;;;;;30.31;42.94;94271.28;4860010;29;7228;-59
2023/07/19 06:08:22;;;;;;;;;;;;;;;30.30;43.00;94273.28;4862552;29;7242;-59
2023/07/19 06:11:02;;;;;;;;;;;;;;;30.28;42.73;94278.63;4865395;29;7223;-58
2023/07/19 06:13:37;;;;;;;;;;;;;;;30.27;42.88;94287.50;4849307;29;8319;-58
2023/07/19 06:16:05;;;;;;;;;;;;;;;30.26;43.36;94297.84;4876930;29;8185;-58
2023/07/19 06:18:33;;;;;;;;;;;;;;;30.27;44.07;94302.13;4896693;28;9194;-58
2023/07/19 06:20:59;;;;;;;;;;;;;;;30.27;43.80;94301.38;4955021;28;7228;-59
2023/07/19 06:23:35;;;;;;;;;;;;;;;30.28;42.97;94300.09;4950857;28;9611;-59
2023/07/19 06:26:11;;;;;;;;;;;;;;;30.27;43.31;94304.91;4964398;28;8196;-58
2023/07/19 06:28:52;;;;;;;;;;;;;;;30.27;43.64;94304.91;4967081;28;8643;-58
2023/07/19 06:31:33;;;;;;;;;;;;;;;30.27;43.00;94313.22;5034499;28;8949;-59
2023/07/19 06:34:02;;;;;;;;;;;;;;;30.28;43.66;94311.94;5033889;28;6988;-59
2023/07/19 06:36:39;;;;;;;;;;;;;;;30.28;43.72;94311.19;5031678;28;7112;-58
2023/07/19 06:39:26;;;;;;;;;;;;;;;30.24;43.05;94311.53;5031542;28;9019;-58
2023/07/19 06:41:55;;;;;;;;;;;;;;;30.27;43.42;94318.03;5030027;28;7340;-58
2023/07/19 06:44:22;;;;;;;;;;;;;;;30.26;43.13;94322.09;5033123;28;9258;-58
2023/07/19 06:47:26;;;;;;;;;;;;;;;30.27;43.17;94320.81;5033755;28;9033;-59
2023/07/19 06:50:06;;;;;;;;;;;;;;;30.22;42.86;94313.38;4973189;28;7277;-59
2023/07/19 06:52:46;;;;;;;;;;;;;;;30.28;43.24;94311.94;4972227;28;7526;-60
2023/07/19 06:55:24;;;;;;;;;;;;;;;30.26;43.38;94306.19;4990236;28;7258;-59
2023/07/19 06:58:10;;;;;;;;;;;;;;;30.27;42.55;94309.72;4989526;28;9086;-59
2023/07/19 07:01:04;;;;;;;;;;;;;;;30.26;42.51;94302.66;4986787;28;8761;-58
2023/07/19 07:03:55;;;;;;;;;;;;;;;30.27;43.67;94290.28;4975122;28;7171;-58
2023/07/19 07:06:31;;;;;;;;;;;;;;;30.24;42.92;94286.56;4956738;28;7003;-59
2023/07/19 07:09:07;;;;;;;;;;;;;;;30.23;42.97;94290.63;4958199;28;7012;-60
2023/07/19 07:11:45;;;;;;;;;;;;;;;30.24;43.20;94285.81;4971810;28;9442;-59
2023/07/19 07:14:11;;;;;;;;;;;;;;;30.21;42.58;94273.03;4973321;28;7088;-62
2023/07/19 07:17:09;;;;;;;;;;;;;;;30.24;43.36;94283.78;4969434;28;9184;-62
2023/07/19 07:19:45;;;;;;;;;;;;;;;30.25;42.58;94265.13;4966707;28;9675;-62
2023/07/19 07:22:28;;;;;;;;;;;;;;;30.23;43.80;94264.91;4955668;28;9137;-61
2023/07/19 07:25:14;;;;;;;;;;;;;;;30.23;42.83;94264.91;4988768;28;7198;-63
2023/07/19 07:28:09;;;;;;;;;;;;;;;30.26;42.44;94267.34;4994656;28;7335;-62
2023/07/19 07:30:49;;;;;;;;;;;;;;;30.23;43.76;94259.38;5003719;28;7321;-62
2023/07/19 07:33:15;;;;;;;;;;;;;;;30.20;43.55;94252.88;5004181;28;7353;-62
2023/07/19 07:36:15;;;;;;;;;;;;;;;30.23;42.89;94251.78;5009168;28;9078;-62
2023/07/19 07:39:01;;;;;;;;;;;;;;;30.22;43.62;94246.78;5006904;28;8544;-63
2023/07/19 07:41:36;;;;;;;;;;;;;;;30.23;43.13;94251.03;4985647;28;7265;-62
2023/07/19 07:44:21;;;;;;;;;;;;;;;30.24;42.71;94252.53;4995896;28;9277;-63
2023/07/19 07:46:57;;;;;;;;;;;;;;;30.23;43.14;94257.31;5000138;28;7239;-63
2023/07/19 07:49:23;;;;;;;;;;;;;;;30.22;42.62;94252.31;4994170;28;7190;-62
2023/07/19 07:51:53;;;;;;;;;;;;;;;30.22;43.17;94238.44;4985464;28;9185;-62
2023/07/19 07:54:20;;;;;;;;;;;;;;;30.20;42.66;94241.03;4985735;28;6965;-62
2023/07/19 07:56:48;;;;;;;;;;;;;;;30.23;42.55;94249.00;5037024;28;7395;-62
2023/07/19 07:59:16;;;;;;;;;;;;;;;30.24;43.20;94246.97;5029386;28;7248;-61
2023/07/19 08:01:44;;;;;;;;;;;;;;;30.21;42.55;94243.25;5029412;28;9076;-62
2023/07/19 08:04:12;;;;;;;;;;;;;;;30.23;42.63;94246.22;5027114;28;9286;-62
2023/07/19 08:06:40;;;;;;;;;;;;;;;30.22;43.09;94250.28;5047029;28;9041;-62
2023/07/19 08:09:18;;;;;;;;;;;;;;;30.18;42.67;94244.34;5032401;28;9159;-62
2023/07/19 08:11:46;;;;;;;;;;;;;;;30.20;43.16;94247.31;5033050;28;8818;-62
2023/07/19 08:14:32;;;;;;;;;;;;;;;30.19;43.46;94248.59;5022648;28;9637;-62
2023/07/19 08:17:28;;;;;;;;;;;;;;;30.21;43.00;94246.03;5064434;28;8571;-62
2023/07/19 08:19:57;;;;;;;;;;;;;;;30.23;43.61;94239.94;5025627;28;7170;-62
2023/07/19 08:22:35;;;;;;;;;;;;;;;30.21;43.20;94240.47;5028825;28;7076;-62
2023/07/19 08:25:01;;;;;;;;;;;;;;;30.17;43.11;94248.41;5023303;28;6953;-60
2023/07/19 08:27:28;;;;;;;;;;;;;;;30.16;43.13;94229.53;5031228;28;6987;-60
2023/07/19 08:30:09;;;;;;;;;;;;;;;30.16;43.36;94230.28;5030866;28;9086;-60
2023/07/19 08:32:46;;;;;;;;;;;;;;;30.22;43.51;94233.66;5029694;28;7104;-59
2023/07/19 08:35:24;;;;;;;;;;;;;;;30.27;43.07;94235.53;5030282;28;7245;-60
2023/07/19 08:38:00;;;;;;;;;;;;;;;30.28;42.65;94227.94;5024494;28;7058;-59
2023/07/19 08:40:59;;;;;;;;;;;;;;;30.27;43.71;94235.53;5042122;28;9327;-60
2023/07/19 08:43:29;;;;;;;;;;;;;;;30.28;42.98;94219.63;4983300;28;8330;-59
2023/07/19 08:46:26;;;;;;;;;;;;;;;30.27;42.71;94221.66;4982763;28;9239;-60
2023/07/19 08:48:52;;;;;;;;;;;;;;;30.27;44.17;94230.00;4932677;29;7090;-60
2023/07/19 08:51:27;;;;;;;;;;;;;;;30.28;44.21;94225.91;4926124;29;7000;-60
2023/07/19 08:53:54;;;;;;;;;;;;;;;30.29;43.72;94221.13;4919512;29;8849;-60
2023/07/19 08:56:22;;;;;;;;;;;;;;;30.30;43.41;94228.88;4924699;29;7243;-60
2023/07/19 08:58:57;;;;;;;;;;;;;;;30.32;43.48;94225.59;4918259;29;7252;-60
2023/07/19 09:01:39;;;;;;;;;;;;;;;30.32;43.79;94214.50;4921823;29;7225;-59
2023/07/19 09:04:12;;;;;;;;;;;;;;;30.32;43.08;94211.75;4930374;28;8156;-59
2023/07/19 09:06:43;;;;;;;;;;;;;;;30.31;43.63;94213.75;4936304;28;7247;-60
2023/07/19 09:09:11;;;;;;;;;;;;;;;30.34;43.33;94206.38;4931373;29;9246;-59
2023/07/19 09:12:12;;;;;;;;;;;;;;;30.33;42.65;94208.41;4935937;29;7114;-59
2023/07/19 09:14:38;;;;;;;;;;;;;;;30.31;43.00;94205.44;4915150;29;9064;-59
2023/07/19 09:17:12;;;;;;;;;;;;;;;30.35;43.01;94194.72;4895748;29;9040;-60
2023/07/19 09:19:53;;;;;;;;;;;;;;;30.37;42.68;94200.47;4926190;29;7271;-59
2023/07/19 09:22:29;;;;;;;;;;;;;;;30.35;43.31;94202.31;4961684;28;7060;-59
2023/07/19 09:25:16;;;;;;;;;;;;;;;30.38;42.31;94207.50;4952757;28;7429;-60
2023/07/19 09:27:50;;;;;;;;;;;;;;;30.40;42.22;94198.63;4987297;28;9115;-59
2023/07/19 09:30:20;;;;;;;;;;;;;;;30.41;42.30;94202.88;4972121;28;9230;-59
2023/07/19 09:33:05;;;;;;;;;;;;;;;30.38;42.07;94201.94;4986714;28;7285;-59
2023/07/19 09:35:33;;;;;;;;;;;;;;;30.37;42.54;94203.25;4954633;28;8924;-62
2023/07/19 09:38:10;;;;;;;;;;;;;;;30.41;42.37;94200.09;4984646;28;9078;-62
2023/07/19 09:40:57;;;;;;;;;;;;;;;30.41;42.25;94203.63;4947319;28;9089;-63
2023/07/19 09:43:36;;;;;;;;;;;;;;;30.38;42.16;94198.44;4967026;28;9260;-63
2023/07/19 09:46:23;;;;;;;;;;;;;;;30.40;42.67;94190.31;4958508;28;7237;-63
2023/07/19 09:48:49;;;;;;;;;;;;;;;30.41;42.25;94194.56;5027392;28;9385;-63
2023/07/19 09:51:25;;;;;;;;;;;;;;;30.42;42.57;94182.94;5063897;28;7206;-63
2023/07/19 09:54:14;;;;;;;;;;;;;;;30.40;42.45;94179.97;5027052;28;9509;-63
2023/07/19 09:56:46;;;;;;;;;;;;;;;30.42;42.93;94171.06;5031292;28;6992;-63
2023/07/19 09:59:17;;;;;;;;;;;;;;;30.45;42.88;94187.38;5048505;28;7004;-63
2023/07/19 10:01:51;;;;;;;;;;;;;;;30.45;42.92;94189.38;5030766;28;7240;-62
2023/07/19 10:04:28;;;;;;;;;;;;;;;30.44;42.21;94180.34;5061305;28;7076;-63
2023/07/19 10:07:42;;;;;;;;;;;;;;;30.45;41.72;94183.84;5030008;28;8403;-63
2023/07/19 10:10:13;;;;;;;;;;;;;;;30.45;42.32;94178.28;5027383;28;7347;-62
2023/07/19 10:12:47;;;;;;;;;;;;;;;30.45;42.36;94170.72;5026369;28;7000;-63
2023/07/19 10:15:17;;;;;;;;;;;;;;;30.41;41.43;94178.66;5028468;28;9096;-63
2023/07/19 10:17:58;;;;;;;;;;;;;;;30.42;42.34;94201.59;5031921;28;9092;-62
2023/07/19 10:21:02;;;;;;;;;;;;;;;30.43;41.59;94192.72;5029031;28;7249;-62
2023/07/19 10:24:05;;;;;;;;;;;;;;;30.46;41.64;94188.13;5011839;28;7576;-62
2023/07/19 10:26:37;;;;;;;;;;;;;;;30.45;42.02;94190.13;4991990;28;7424;-62
2023/07/19 10:29:36;;;;;;;;;;;;;;;30.44;41.97;94191.44;4991551;28;9244;-62
2023/07/19 10:32:04;;;;;;;;;;;;;;;30.44;41.58;94179.59;5011207;28;9335;-62
2023/07/19 10:35:15;;;;;;;;;;;;;;;30.42;42.07;94187.72;4990382;28;7303;-63
2023/07/19 10:38:28;;;;;;;;;;;;;;;30.41;41.67;94189.75;4932701;29;7249;-62
2023/07/19 10:41:12;;;;;;;;;;;;;;;30.43;42.12;94189.94;4840532;29;7434;-62
2023/07/19 10:44:32;;;;;;;;;;;;;;;30.43;41.40;94186.41;4864250;29;6992;-62
2023/07/19 10:47:18;;;;;;;;;;;;;;;30.44;41.95;94185.16;4860994;29;7007;-61
2023/07/19 10:50:09;;;;;;;;;;;;;;;30.45;41.72;94189.38;4844042;29;8784;-62
2023/07/19 10:52:47;;;;;;;;;;;;;;;30.47;41.83;94184.78;4859624;29;9055;-63
2023/07/19 10:55:13;;;;;;;;;;;;;;;30.44;42.30;94185.16;4859012;29;8769;-62
2023/07/19 10:57:50;;;;;;;;;;;;;;;30.42;42.53;94184.94;4856320;29;7246;-62
2023/07/19 11:00:19;;;;;;;;;;;;;;;30.43;41.89;94181.63;4863143;29;7173;-63
2023/07/19 11:02:48;;;;;;;;;;;;;;;30.44;41.90;94185.16;4896005;29;9033;-63
2023/07/19 11:05:15;;;;;;;;;;;;;;;30.43;41.45;94183.66;4876578;29;8220;-62
2023/07/19 11:08:01;;;;;;;;;;;;;;;30.44;41.92;94185.16;4879282;29;7017;-63
2023/07/19 11:10:28;;;;;;;;;;;;;;;30.46;41.97;94174.97;4893609;29;8733;-63
2023/07/19 11:12:54;;;;;;;;;;;;;;;30.46;41.83;94183.31;4900043;29;7220;-63
2023/07/19 11:15:21;;;;;;;;;;;;;;;30.48;42.34;94182.75;4958437;28;7238;-63
2023/07/19 11:17:55;;;;;;;;;;;;;;;30.48;41.64;94186.28;4995527;28;7324;-62
2023/07/19 11:20:40;;;;;;;;;;;;;;;30.47;41.77;94170.19;5026185;28;8897;-62
2023/07/19 11:23:17;;;;;;;;;;;;;;;30.44;41.77;94154.63;5030917;28;7385;-62
2023/07/19 11:26:06;;;;;;;;;;;;;;;30.46;41.42;94161.09;5023735;28;9055;-62
2023/07/19 11:28:58;;;;;;;;;;;;;;;30.46;42.04;94163.13;5028898;28;6995;-62
2023/07/19 11:31:38;;;;;;;;;;;;;;;30.44;41.58;94149.06;5031314;28;7170;-62
2023/07/19 11:34:23;;;;;;;;;;;;;;;30.47;42.31;94170.91;5032106;28;9284;-62
2023/07/19 11:36:49;;;;;;;;;;;;;;;30.49;41.50;94182.19;5023958;28;9236;-62
2023/07/19 11:39:28;;;;;;;;;;;;;;;30.47;41.78;94176.44;5022658;28;7067;-62
2023/07/19 11:42:01;;;;;;;;;;;;;;;30.48;41.50;94171.66;5030673;28;7441;-62
2023/07/19 11:44:27;;;;;;;;;;;;;;;30.49;41.33;94157.22;5023969;28;6996;-62
2023/07/19 11:46:55;;;;;;;;;;;;;;;30.47;41.99;94165.34;5024015;28;9011;-62
2023/07/19 11:49:21;;;;;;;;;;;;;;;30.48;41.84;94164.06;5024905;28;8114;-62
2023/07/19 11:51:56;;;;;;;;;;;;;;;30.50;41.91;94163.50;5030762;28;7647;-62
2023/07/19 11:54:25;;;;;;;;;;;;;;;30.49;41.17;94157.22;5030800;28;9055;-58
2023/07/19 11:56:54;;;;;;;;;;;;;;;30.50;41.77;94158.72;5028723;28;8793;-58
2023/07/19 11:59:20;;;;;;;;;;;;;;;30.52;41.32;94155.38;5025338;28;7206;-59
2023/07/19 12:02:25;;;;;;;;;;;;;;;30.54;40.98;94150.75;5028507;28;7124;-58
2023/07/19 12:04:57;;;;;;;;;;;;;;;30.56;41.62;94149.50;5033572;28;7403;-59
2023/07/19 12:07:37;;;;;;;;;;;;;;;30.56;41.25;94155.75;5029028;28;7338;-59
2023/07/19 12:10:04;;;;;;;;;;;;;;;30.56;41.45;94152.97;5025324;28;6983;-58
2023/07/19 12:12:32;;;;;;;;;;;;;;;30.58;41.51;94155.94;5027748;28;7240;-59
2023/07/19 12:15:05;;;;;;;;;;;;;;;30.60;41.40;94153.41;5024312;28;7333;-59
2023/07/19 12:17:36;;;;;;;;;;;;;;;30.62;41.63;94144.50;5027249;28;9197;-59
2023/07/19 12:20:16;;;;;;;;;;;;;;;30.63;40.69;94145.97;5028479;28;9071;-60
2023/07/19 12:22:50;;;;;;;;;;;;;;;30.63;41.26;94135.63;5027510;28;7895;-59
2023/07/19 12:25:27;;;;;;;;;;;;;;;30.65;41.62;94140.63;5024351;28;7004;-59
2023/07/19 12:28:12;;;;;;;;;;;;;;;30.63;41.20;94132.84;5023904;28;7318;-59
2023/07/19 12:30:49;;;;;;;;;;;;;;;30.64;41.08;94128.78;5025567;28;7749;-59
2023/07/19 12:33:44;;;;;;;;;;;;;;;30.66;41.30;94131.00;5023332;28;8832;-59
2023/07/19 12:36:30;;;;;;;;;;;;;;;30.65;40.49;94124.69;4985765;28;6998;-58
2023/07/19 12:39:19;;;;;;;;;;;;;;;30.71;40.48;94130.09;4984379;28;9074;-59
2023/07/19 12:41:57;;;;;;;;;;;;;;;30.69;40.91;94124.38;4988511;28;7073;-59
2023/07/19 12:44:28;;;;;;;;;;;;;;;30.71;41.27;94124.53;4991766;28;6998;-59
2023/07/19 12:47:27;;;;;;;;;;;;;;;30.65;41.54;94118.41;4989285;28;8960;-59
2023/07/19 12:50:07;;;;;;;;;;;;;;;30.67;42.15;94115.84;4997801;28;7900;-59
2023/07/19 12:53:04;;;;;;;;;;;;;;;30.81;40.36;94119.94;4987491;28;8757;-58
2023/07/19 12:55:39;;;;;;;;;;;;;;;30.90;40.28;94113.88;4951268;28;6928;-59
2023/07/19 12:58:12;;;;;;;;;;;;;;;31.09;40.62;94108.72;4934452;28;7274;-59
2023/07/19 13:00:48;;;;;;;;;;;;;;;31.13;39.91;94106.31;4944874;28;7587;-59
2023/07/19 13:03:15;;;;;;;;;;;;;;;31.16;40.05;94099.66;4945256;28;8516;-59
2023/07/19 13:06:21;;;;;;;;;;;;;;;31.15;40.30;94096.13;4950353;28;7190;-63
2023/07/19 13:08:57;;;;;;;;;;;;;;;31.09;39.21;94090.00;4872696;29;7024;-62
2023/07/19 13:11:42;;;;;;;;;;;;;;;31.05;39.71;94091.66;4871318;29;7248;-63
2023/07/19 13:14:26;;;;;;;;;;;;;;;31.00;39.52;94087.78;4905262;29;7489;-63
2023/07/19 13:17:05;;;;;;;;;;;;;;;30.97;39.98;94088.16;4909892;29;6861;-62
2023/07/19 13:19:31;;;;;;;;;;;;;;;30.97;40.10;94088.88;4910261;29;9006;-62
2023/07/19 13:22:01;;;;;;;;;;;;;;;30.98;39.82;94084.06;4902982;29;7340;-62
2023/07/19 13:24:30;;;;;;;;;;;;;;;30.93;39.67;94077.41;4905226;29;6865;-62
2023/07/19 13:27:13;;;;;;;;;;;;;;;30.98;39.66;94084.81;4891444;29;7261;-62
2023/07/19 13:29:57;;;;;;;;;;;;;;;31.04;39.05;94085.38;4888400;29;9036;-62
2023/07/19 13:32:56;;;;;;;;;;;;;;;31.09;40.34;94078.91;4923431;29;8185;-62
2023/07/19 13:35:45;;;;;;;;;;;;;;;31.07;39.08;94077.97;4950411;28;7489;-63
2023/07/19 13:38:20;;;;;;;;;;;;;;;31.04;39.17;94077.03;4944503;29;7196;-63
2023/07/19 13:41:06;;;;;;;;;;;;;;;31.08;39.02;94071.84;5025951;28;9294;-63
2023/07/19 13:43:32;;;;;;;;;;;;;;;31.13;38.93;94068.16;5042912;28;7379;-63
2023/07/19 13:46:27;;;;;;;;;;;;;;;31.22;39.64;94070.38;5062411;28;7250;-63
2023/07/19 13:48:55;;;;;;;;;;;;;;;31.22;39.22;94064.06;5020906;28;7246;-62
2023/07/19 13:51:27;;;;;;;;;;;;;;;31.27;39.41;94065.94;5023995;28;7247;-62
2023/07/19 13:53:55;;;;;;;;;;;;;;;31.33;39.62;94060.19;5025490;28;6964;-63
2023/07/19 13:56:29;;;;;;;;;;;;;;;31.40;39.40;94060.19;5047565;28;6963;-63